Terminal Aerodrome Forecast
Issued by NWS

Home | Current Version | Previous Version | Graphics & Text | Print | Product List | Glossary On
Versions: 1 2 3 4 5 6 7 8 9 10 11 12 13 14 15
000
FTUS43 KICT 301121
TAFSLN
TAF
KSLN 301121Z 3012/3112 17005KT P6SM SKC
     FM301400 19010KT P6SM SKC
     FM301700 21017G25KT P6SM SKC
     FM310000 18008KT P6SM SKC
     FM310600 VRB03KT P6SM SKC=

USA.gov is the U.S. government's official web portal to all federal, state and local government web resources and services.